Terminal Aerodrome Forecast
Issued by NWS Blacksburg, VA

Home | Current Version | Previous Version | Text Only | Print | Product List | Glossary On
Versions: 1 2 3 4 5 6 7 8 9 10 11 12 13 14 15 16 17 18 19
000
FTUS41 KRNK 300520
TAFDAN
TAF
KDAN 300520Z 3006/3106 10006KT P6SM BKN060
     FM300900 08006KT P6SM BKN025
     FM301300 09006KT 4SM BR OVC035
     FM301900 10006KT P6SM BKN025
     FM302300 10005KT P6SM OVC035=

USA.gov is the U.S. government's official web portal to all federal, state and local government web resources and services.